Dover Air Force Base Dover US
ICAO: KDOV
IATA: DOV
Category: Large
Scheduled Services: No

Elevation: 24 ft
TransAlt. 18000 ft.

Airport Communications:
APP:132.425
ATIS:135.05
CLNC DEL:125.55
DEP:32.3
GND:118.875
PMSV METRO:34.2
COMD POST:134.1
PTD:134.1
MILLVILLE RDO:111.4
TWR:126.35

KDOV Zoom In..

Runways:

(A) RW 01 length 9602 ft width 200 ft
ILS 109.95 / hdg 13

(B) RW 14 length 12903 ft width 150 ft
---- / hdg 136

(C) RW 19 length 9602 ft width 200 ft
ILS 111.90 / hdg 193

(D) RW 32 length 12903 ft width 150 ft
---- / hdg 316

Location; KDOV
Day. 23 / Time. 07.36 Zulu
* Altimeter: 29.92
* Temperature: 25° c. 77°f.
* Wind from: 110° Speed 08 kn.
Dewpoint: 24° c.
Visibility: 9 Statute Miles.
Clouds: Few 800 ft.
Clouds: Broken 1400 ft.

KDOV 230736Z AUTO 11008KT 9SM FEW008 BKN014 25/24 A2992 RMK AO2 SLP135 TSNO $


Wind From 110°
Speed 08 kn.

 
 
jpsmedia.com for Web Design worldairports.se 2018   terms of use